createdAt,value
2022-08-16T00:01:11.488Z,46.30
2022-08-16T00:03:38.651Z,46.40
2022-08-16T00:06:07.510Z,46.40
2022-08-16T00:08:36.945Z,46.40
2022-08-16T00:11:03.939Z,46.40
2022-08-16T00:13:30.485Z,46.40
2022-08-16T00:15:58.879Z,46.30
2022-08-16T00:18:30.023Z,46.30
2022-08-16T00:20:58.187Z,46.30
2022-08-16T00:23:34.613Z,46.30
2022-08-16T00:26:36.556Z,46.40
2022-08-16T00:28:54.892Z,46.40
2022-08-16T00:31:24.160Z,46.30
2022-08-16T00:33:50.882Z,46.30
2022-08-16T00:36:17.398Z,46.30
2022-08-16T00:38:43.930Z,46.30
2022-08-16T00:41:11.344Z,46.30
2022-08-16T00:43:43.601Z,46.40
2022-08-16T00:46:22.416Z,46.40
2022-08-16T00:48:56.855Z,46.40
2022-08-16T00:51:23.393Z,46.40
2022-08-16T00:53:52.879Z,46.40
2022-08-16T00:56:56.570Z,46.40
2022-08-16T00:59:05.921Z,46.40
2022-08-16T01:01:32.440Z,46.40
2022-08-16T01:04:02.472Z,46.40
2022-08-16T01:06:40.868Z,46.30
2022-08-16T01:09:16.098Z,46.30
2022-08-16T01:11:53.894Z,46.40
2022-08-16T01:14:29.874Z,46.40
2022-08-16T01:16:56.856Z,46.40
2022-08-16T01:19:23.378Z,46.40
2022-08-16T01:21:49.883Z,46.40
2022-08-16T01:24:53.722Z,46.30
2022-08-16T01:27:03.836Z,46.30
2022-08-16T01:29:56.727Z,46.40
2022-08-16T01:32:31.463Z,46.40
2022-08-16T01:35:00.445Z,46.40
2022-08-16T01:37:26.974Z,46.40
2022-08-16T01:40:02.288Z,46.50
2022-08-16T01:42:33.996Z,46.40
2022-08-16T01:45:00.543Z,46.40
2022-08-16T01:47:27.355Z,46.50
2022-08-16T01:50:41.798Z,46.40
2022-08-16T01:52:46.381Z,46.50
2022-08-16T01:55:13.223Z,46.50
2022-08-16T01:57:41.121Z,46.50
2022-08-16T02:00:20.450Z,46.40
2022-08-16T02:02:55.513Z,46.50
2022-08-16T02:05:23.457Z,46.40
2022-08-16T02:07:51.845Z,46.50
2022-08-16T02:10:18.861Z,46.50
2022-08-16T02:12:51.191Z,46.50
2022-08-16T02:15:25.511Z,46.50
2022-08-16T02:17:52.513Z,46.50
2022-08-16T02:20:19.308Z,46.50
2022-08-16T02:22:53.046Z,46.50
2022-08-16T02:25:21.942Z,46.50
2022-08-16T02:27:53.044Z,46.50
2022-08-16T02:30:36.719Z,46.50
2022-08-16T02:33:06.480Z,46.50
2022-08-16T02:35:33.251Z,46.50
2022-08-16T02:38:01.791Z,46.60
2022-08-16T02:40:35.559Z,46.50
2022-08-16T02:43:02.792Z,46.50
2022-08-16T02:45:29.415Z,46.60
2022-08-16T02:48:00.224Z,46.50
2022-08-16T02:50:55.463Z,46.50
2022-08-16T02:53:15.001Z,46.50
2022-08-16T02:55:44.923Z,46.50
2022-08-16T02:58:17.143Z,46.50
2022-08-16T03:00:45.536Z,46.50
2022-08-16T03:03:17.696Z,46.50
2022-08-16T03:05:44.458Z,46.50
2022-08-16T03:08:51.836Z,46.50
2022-08-16T03:11:03.138Z,46.60
2022-08-16T03:13:30.404Z,46.50
2022-08-16T03:16:06.590Z,46.50
2022-08-16T03:18:53.090Z,46.50
2022-08-16T03:21:19.632Z,46.50
2022-08-16T03:23:49.775Z,46.50
2022-08-16T03:26:18.137Z,46.50
2022-08-16T03:28:44.651Z,46.50
2022-08-16T03:31:13.310Z,46.50
2022-08-16T03:33:41.537Z,46.50
2022-08-16T03:36:29.958Z,46.50
2022-08-16T03:38:55.548Z,46.50
2022-08-16T03:41:29.314Z,46.50
2022-08-16T03:44:09.158Z,46.50
2022-08-16T03:46:48.403Z,46.50
2022-08-16T03:49:16.671Z,46.60
2022-08-16T03:51:43.223Z,46.50
2022-08-16T03:54:12.147Z,46.50
2022-08-16T03:56:39.018Z,46.50
2022-08-16T03:59:23.934Z,46.50
2022-08-16T04:01:53.773Z,46.60
2022-08-16T04:04:30.985Z,46.60
2022-08-16T04:09:53.092Z,46.50
2022-08-16T04:13:04.222Z,46.50
2022-08-16T04:15:07.180Z,46.50
2022-08-16T04:17:35.292Z,46.50
2022-08-16T04:20:01.878Z,46.60
2022-08-16T04:22:31.005Z,46.50
2022-08-16T04:24:59.416Z,46.50
2022-08-16T04:27:29.062Z,46.50
2022-08-16T04:30:02.733Z,46.50
2022-08-16T04:32:30.125Z,46.40
2022-08-16T04:35:02.276Z,46.50
2022-08-16T04:37:32.974Z,46.50
2022-08-16T04:40:09.040Z,46.50
2022-08-16T04:42:45.969Z,46.50
2022-08-16T04:45:17.835Z,46.50
2022-08-16T04:47:47.120Z,46.50
2022-08-16T04:50:22.838Z,46.50
2022-08-16T04:52:56.324Z,46.60
2022-08-16T04:55:37.870Z,46.50
2022-08-16T04:58:44.032Z,46.50
2022-08-16T05:00:51.485Z,46.50
2022-08-16T05:03:18.038Z,46.50
2022-08-16T05:05:55.340Z,46.50
2022-08-16T05:08:28.961Z,46.50
2022-08-16T05:10:58.829Z,46.50
2022-08-16T05:13:39.873Z,46.50
2022-08-16T05:16:08.501Z,46.60
2022-08-16T05:18:38.589Z,46.60
2022-08-16T05:21:09.761Z,46.60
2022-08-16T05:23:37.952Z,46.60
2022-08-16T05:26:05.116Z,46.70
2022-08-16T05:28:38.961Z,46.60
2022-08-16T05:31:06.859Z,46.60
2022-08-16T05:33:33.476Z,46.60
2022-08-16T05:36:00.404Z,46.70
2022-08-16T05:38:33.205Z,46.70
2022-08-16T05:41:13.937Z,46.70
2022-08-16T05:43:42.895Z,46.60
2022-08-16T05:46:30.056Z,46.60
2022-08-16T05:49:01.685Z,46.60
2022-08-16T05:51:38.798Z,46.70
2022-08-16T05:54:07.012Z,46.70
2022-08-16T05:56:34.173Z,46.60
2022-08-16T05:59:03.914Z,46.60
2022-08-16T06:01:38.110Z,46.60
2022-08-16T06:04:13.485Z,46.70
2022-08-16T06:06:57.859Z,46.70
2022-08-16T06:09:24.440Z,46.70
2022-08-16T06:11:51.649Z,46.60
2022-08-16T06:14:18.194Z,46.60
2022-08-16T06:16:44.720Z,46.60
2022-08-16T06:19:17.586Z,46.70
2022-08-16T06:21:44.116Z,46.60
2022-08-16T06:24:54.349Z,46.60
2022-08-16T06:26:57.793Z,46.50
2022-08-16T06:29:24.993Z,46.50
2022-08-16T06:31:51.525Z,46.50
2022-08-16T06:34:53.226Z,46.50
2022-08-16T06:37:04.552Z,46.50
2022-08-16T06:39:31.113Z,46.40
2022-08-16T06:42:00.961Z,46.60
2022-08-16T06:44:27.505Z,46.50
2022-08-16T06:46:54.024Z,46.50
2022-08-16T06:49:20.617Z,46.50
2022-08-16T06:51:48.836Z,46.50
2022-08-16T06:54:15.638Z,46.40
2022-08-16T06:56:42.157Z,46.40
2022-08-16T06:59:11.177Z,46.40
2022-08-16T07:01:46.218Z,46.50
2022-08-16T07:04:31.806Z,46.40
2022-08-16T07:06:59.978Z,46.40
2022-08-16T07:09:29.827Z,46.50
2022-08-16T07:12:03.678Z,46.40
2022-08-16T07:14:35.430Z,46.40
2022-08-16T07:17:02.229Z,46.40
2022-08-16T07:19:33.533Z,46.40
2022-08-16T07:22:36.766Z,46.50
2022-08-16T07:25:01.758Z,46.40
2022-08-16T07:27:28.286Z,46.50
2022-08-16T07:29:55.665Z,46.40
2022-08-16T07:32:29.454Z,46.50
2022-08-16T07:34:56.320Z,46.50
2022-08-16T07:37:23.190Z,46.40
2022-08-16T07:39:50.787Z,46.40
2022-08-16T07:42:25.850Z,46.50
2022-08-16T07:45:01.175Z,46.40
2022-08-16T07:47:31.503Z,46.40
2022-08-16T07:49:58.624Z,46.50
2022-08-16T07:52:25.159Z,46.50
2022-08-16T07:54:56.579Z,46.40
2022-08-16T07:57:24.212Z,46.40
2022-08-16T07:59:50.937Z,46.40
2022-08-16T08:02:19.996Z,46.40
2022-08-16T08:04:47.413Z,46.40
2022-08-16T08:07:14.596Z,46.40
2022-08-16T08:09:43.350Z,46.40
2022-08-16T08:12:10.286Z,46.40
2022-08-16T08:14:56.801Z,46.40
2022-08-16T08:17:23.325Z,46.40
2022-08-16T08:19:53.229Z,46.40
2022-08-16T08:22:21.974Z,46.40
2022-08-16T08:24:53.442Z,46.30
2022-08-16T08:27:25.719Z,46.40
2022-08-16T08:30:49.331Z,46.40
2022-08-16T08:32:58.094Z,46.40
2022-08-16T08:35:27.076Z,46.40
2022-08-16T08:37:56.556Z,46.30
2022-08-16T08:40:24.658Z,46.40
2022-08-16T08:42:57.838Z,46.40
2022-08-16T08:45:47.099Z,46.30
2022-08-16T08:48:33.546Z,46.30
2022-08-16T08:51:01.707Z,46.30
2022-08-16T08:53:30.610Z,46.30
2022-08-16T08:55:58.687Z,46.30
2022-08-16T08:58:25.874Z,46.30
2022-08-16T09:01:01.273Z,46.30
2022-08-16T09:03:28.260Z,46.30
2022-08-16T09:05:58.977Z,46.30
2022-08-16T09:08:27.388Z,46.20
2022-08-16T09:10:59.174Z,46.20
2022-08-16T09:13:32.711Z,46.30
2022-08-16T09:15:59.493Z,46.20
2022-08-16T09:18:26.785Z,46.20
2022-08-16T09:20:58.665Z,46.20
2022-08-16T09:23:26.803Z,46.20
2022-08-16T09:25:59.339Z,46.20
2022-08-16T09:29:13.551Z,46.20
2022-08-16T09:31:12.482Z,46.20
2022-08-16T09:33:39.393Z,46.20
2022-08-16T09:36:06.317Z,46.20
2022-08-16T09:38:38.868Z,46.20
2022-08-16T09:41:14.651Z,46.20
2022-08-16T09:43:59.503Z,46.20
2022-08-16T09:46:33.396Z,46.20
2022-08-16T09:49:12.183Z,46.20
2022-08-16T09:51:41.374Z,46.20
2022-08-16T09:54:09.776Z,46.20
2022-08-16T09:56:36.521Z,46.20
2022-08-16T09:59:07.308Z,46.20
2022-08-16T10:01:34.968Z,46.20
2022-08-16T10:04:04.611Z,46.20
2022-08-16T10:06:35.382Z,46.20
2022-08-16T10:09:05.330Z,46.20
2022-08-16T10:11:33.174Z,46.20
2022-08-16T10:14:16.620Z,46.20
2022-08-16T10:16:48.930Z,46.20
2022-08-16T10:19:15.643Z,46.20
2022-08-16T10:21:46.012Z,46.20
2022-08-16T10:24:28.632Z,46.20
2022-08-16T10:27:19.483Z,46.20
2022-08-16T10:29:59.461Z,46.20
2022-08-16T10:32:28.085Z,46.20
2022-08-16T10:34:57.256Z,46.20
2022-08-16T10:37:32.227Z,46.20
2022-08-16T10:39:59.452Z,46.30
2022-08-16T10:42:25.976Z,46.30
2022-08-16T10:44:53.560Z,46.30
2022-08-16T10:47:21.316Z,46.20
2022-08-16T10:49:47.853Z,46.30
2022-08-16T10:52:18.674Z,46.30
2022-08-16T10:57:32.802Z,46.30
2022-08-16T10:59:59.541Z,46.40
2022-08-16T11:02:58.163Z,46.30
2022-08-16T11:05:14.396Z,46.30
2022-08-16T11:07:43.451Z,46.30
2022-08-16T11:15:55.697Z,46.40
2022-08-16T11:18:48.288Z,46.40
2022-08-16T11:21:09.328Z,46.50
2022-08-16T11:23:58.323Z,46.40
2022-08-16T11:26:25.321Z,46.40
2022-08-16T11:31:38.381Z,46.40
2022-08-16T11:34:04.934Z,46.40
2022-08-16T11:36:34.594Z,46.40
2022-08-16T11:39:01.630Z,46.50
2022-08-16T11:41:32.261Z,46.50
2022-08-16T11:43:59.016Z,46.50
2022-08-16T11:46:43.328Z,46.50
2022-08-16T11:49:13.880Z,46.60
2022-08-16T11:51:41.424Z,46.50
2022-08-16T11:54:08.916Z,46.50
2022-08-16T11:56:52.487Z,46.60
2022-08-16T11:59:19.878Z,46.60
2022-08-16T12:01:59.015Z,46.50
2022-08-16T12:04:26.270Z,46.60
2022-08-16T12:06:53.774Z,46.60
2022-08-16T12:09:21.326Z,46.60
2022-08-16T12:11:52.408Z,46.50
2022-08-16T12:14:23.485Z,46.60
2022-08-16T12:16:53.667Z,46.60
2022-08-16T12:19:22.404Z,46.60
2022-08-16T12:22:00.105Z,46.60
2022-08-16T12:24:26.661Z,46.60
2022-08-16T12:26:53.189Z,46.60
2022-08-16T12:29:20.420Z,46.60
2022-08-16T12:32:00.669Z,46.70
2022-08-16T12:34:33.486Z,46.70
2022-08-16T12:37:01.170Z,46.70
2022-08-16T12:39:28.814Z,46.70
2022-08-16T12:41:55.657Z,46.70
2022-08-16T12:44:22.191Z,46.70
2022-08-16T12:46:53.500Z,46.60
2022-08-16T12:49:20.027Z,46.60
2022-08-16T12:51:59.674Z,46.70
2022-08-16T12:54:26.750Z,46.60
2022-08-16T12:56:53.266Z,46.70
2022-08-16T12:59:23.528Z,46.70
2022-08-16T13:01:55.298Z,46.70
2022-08-16T13:04:25.124Z,46.70
2022-08-16T13:06:52.345Z,46.70
2022-08-16T13:09:19.372Z,46.60
2022-08-16T13:11:52.200Z,46.60
2022-08-16T13:14:31.242Z,46.70
2022-08-16T13:16:59.508Z,46.70
2022-08-16T13:19:44.218Z,46.70
2022-08-16T13:22:19.760Z,46.70
2022-08-16T13:24:46.442Z,46.70
2022-08-16T13:27:13.167Z,46.70
2022-08-16T13:29:44.149Z,46.70
2022-08-16T13:32:10.804Z,46.70
2022-08-16T13:34:59.502Z,46.70
2022-08-16T13:37:29.567Z,46.70
2022-08-16T13:40:05.865Z,46.70
2022-08-16T13:42:32.426Z,46.80
2022-08-16T13:45:07.830Z,46.70
2022-08-16T13:47:35.435Z,46.70
2022-08-16T13:50:01.964Z,46.70
2022-08-16T13:52:33.993Z,46.80
2022-08-16T13:55:00.768Z,46.70
2022-08-16T13:57:52.410Z,46.60
2022-08-16T14:00:14.097Z,46.70
2022-08-16T14:02:46.146Z,46.70
2022-08-16T14:05:15.440Z,46.70
2022-08-16T14:07:52.692Z,46.60
2022-08-16T14:10:23.597Z,46.70
2022-08-16T14:12:50.132Z,46.70
2022-08-16T14:15:18.683Z,46.60
2022-08-16T14:18:17.093Z,46.70
2022-08-16T14:20:35.588Z,46.60
2022-08-16T14:23:04.467Z,46.70
2022-08-16T14:25:30.992Z,46.60
2022-08-16T14:27:57.514Z,46.60
2022-08-16T14:30:24.035Z,46.60
2022-08-16T14:32:51.362Z,46.60
2022-08-16T14:35:18.159Z,46.60
2022-08-16T14:37:44.691Z,46.60
2022-08-16T14:40:11.306Z,46.60
2022-08-16T14:42:39.134Z,46.60
2022-08-16T14:45:05.672Z,46.60
2022-08-16T14:47:34.852Z,46.50
2022-08-16T14:50:05.928Z,46.50
2022-08-16T14:55:18.989Z,46.50
2022-08-16T14:57:47.251Z,46.50
2022-08-16T15:00:15.735Z,46.50
2022-08-16T15:02:44.574Z,46.50
2022-08-16T15:05:12.453Z,46.50
2022-08-16T15:07:40.967Z,46.40
2022-08-16T15:10:07.726Z,46.50
2022-08-16T15:12:38.658Z,46.40
2022-08-16T15:15:12.672Z,46.40
2022-08-16T15:17:42.840Z,46.40
2022-08-16T15:20:20.976Z,46.40
2022-08-16T15:22:47.504Z,46.40
2022-08-16T15:25:14.028Z,46.40
2022-08-16T15:27:42.528Z,46.40
2022-08-16T15:30:47.818Z,46.40
2022-08-16T15:32:55.590Z,46.40
2022-08-16T15:35:22.109Z,46.30
2022-08-16T15:37:54.314Z,46.30
2022-08-16T15:40:26.807Z,46.30
2022-08-16T15:43:06.615Z,46.30
2022-08-16T15:45:33.635Z,46.30
2022-08-16T15:48:05.694Z,46.30
2022-08-16T15:50:32.223Z,46.30
2022-08-16T15:52:59.682Z,46.20
2022-08-16T15:55:34.991Z,46.30
2022-08-16T15:58:01.976Z,46.20
2022-08-16T16:00:48.544Z,46.30
2022-08-16T16:03:15.136Z,46.30
2022-08-16T16:05:41.669Z,46.20
2022-08-16T16:08:10.922Z,46.20
2022-08-16T16:10:39.405Z,46.20
2022-08-16T16:13:06.055Z,46.20
2022-08-16T16:15:35.429Z,46.20
2022-08-16T16:18:09.665Z,46.20
2022-08-16T16:20:37.337Z,46.20
2022-08-16T16:23:10.072Z,46.20
2022-08-16T16:25:43.781Z,46.20
2022-08-16T16:28:12.845Z,46.20
2022-08-16T16:30:57.777Z,46.20
2022-08-16T16:33:24.322Z,46.20
2022-08-16T16:35:55.627Z,46.20
2022-08-16T16:38:23.320Z,46.20
2022-08-16T16:40:54.145Z,46.20
2022-08-16T16:43:26.043Z,46.10
2022-08-16T16:45:57.844Z,46.10
2022-08-16T16:48:24.369Z,46.10
2022-08-16T16:51:01.173Z,46.10
2022-08-16T16:53:31.835Z,46.10
2022-08-16T16:56:04.226Z,46.10
2022-08-16T16:58:36.714Z,46.10
2022-08-16T17:01:03.416Z,46.10
2022-08-16T17:03:35.732Z,46.10
2022-08-16T17:06:09.442Z,46.10
2022-08-16T17:08:41.754Z,46.00
2022-08-16T17:11:11.785Z,46.10
2022-08-16T17:13:38.967Z,46.10
2022-08-16T17:16:05.494Z,46.00
2022-08-16T17:19:17.377Z,46.00
2022-08-16T17:21:18.554Z,46.10
2022-08-16T17:23:58.007Z,46.00
2022-08-16T17:26:29.758Z,46.00
2022-08-16T17:28:59.556Z,46.00
2022-08-16T17:31:34.750Z,46.00
2022-08-16T17:34:28.576Z,46.00
2022-08-16T17:36:54.657Z,46.00
2022-08-16T17:39:21.308Z,46.00
2022-08-16T17:41:50.281Z,46.00
2022-08-16T17:44:17.719Z,46.00
2022-08-16T17:46:50.908Z,46.00
2022-08-16T17:49:23.801Z,46.00
2022-08-16T17:51:50.316Z,46.00
2022-08-16T17:54:20.262Z,46.00
2022-08-16T17:56:57.048Z,45.90
2022-08-16T17:59:23.567Z,45.90
2022-08-16T18:01:50.137Z,45.90
2022-08-16T18:04:48.842Z,45.90
2022-08-16T18:07:03.224Z,45.90
2022-08-16T18:09:29.753Z,45.90
2022-08-16T18:11:57.220Z,45.90
2022-08-16T18:14:51.348Z,45.90
2022-08-16T18:17:10.245Z,45.90
2022-08-16T18:19:36.771Z,45.90
2022-08-16T18:22:03.517Z,45.90
2022-08-16T18:24:30.042Z,45.90
2022-08-16T18:26:56.555Z,45.90
2022-08-16T18:29:43.065Z,45.90
2022-08-16T18:32:09.601Z,45.90
2022-08-16T18:34:36.136Z,45.90
2022-08-16T18:37:02.667Z,45.90
2022-08-16T18:39:29.260Z,45.90
2022-08-16T18:41:55.804Z,45.90
2022-08-16T18:44:27.548Z,45.90
2022-08-16T18:46:55.020Z,45.90
2022-08-16T18:49:21.545Z,46.00
2022-08-16T18:51:48.085Z,45.90
2022-08-16T18:54:14.616Z,46.00
2022-08-16T18:56:56.524Z,45.90
2022-08-16T18:59:24.195Z,46.00
2022-08-16T19:01:51.887Z,46.00
2022-08-16T19:04:56.108Z,46.00
2022-08-16T19:07:04.941Z,46.00
2022-08-16T19:09:35.928Z,46.00
2022-08-16T19:12:05.836Z,46.10
2022-08-16T19:14:35.827Z,46.10
2022-08-16T19:17:02.359Z,46.10
2022-08-16T19:19:28.875Z,46.10
2022-08-16T19:21:55.417Z,46.10
2022-08-16T19:24:21.982Z,46.20
2022-08-16T19:26:53.831Z,46.20
2022-08-16T19:29:23.671Z,46.20
2022-08-16T19:31:50.180Z,46.20
2022-08-16T19:34:16.695Z,46.20
2022-08-16T19:36:43.227Z,46.20
2022-08-16T19:39:09.773Z,46.20
2022-08-16T19:41:36.307Z,46.30
2022-08-16T19:44:02.934Z,46.30
2022-08-16T19:46:29.480Z,46.30
2022-08-16T19:48:56.001Z,46.30
2022-08-16T19:51:22.509Z,46.40
2022-08-16T19:53:49.025Z,46.30
2022-08-16T19:56:15.529Z,46.20
2022-08-16T19:59:01.990Z,46.30
2022-08-16T20:01:29.835Z,46.30
2022-08-16T20:03:56.360Z,46.30
2022-08-16T20:06:34.923Z,46.20
2022-08-16T20:11:55.943Z,46.30
2022-08-16T20:14:25.673Z,46.30
2022-08-16T20:16:52.927Z,46.40
2022-08-16T20:19:19.511Z,46.50
2022-08-16T20:21:46.021Z,46.40
2022-08-16T20:24:32.893Z,46.40
2022-08-16T20:26:59.069Z,46.50
2022-08-16T20:29:26.546Z,46.40
2022-08-16T20:31:53.071Z,46.40
2022-08-16T20:34:19.612Z,46.40
2022-08-16T20:36:46.125Z,46.40
2022-08-16T20:39:12.692Z,46.40
2022-08-16T20:41:39.226Z,46.50
2022-08-16T20:44:05.790Z,46.40
2022-08-16T20:46:42.096Z,46.40
2022-08-16T20:49:09.030Z,46.30
2022-08-16T20:51:46.496Z,46.30
2022-08-16T20:54:14.716Z,46.30
2022-08-16T20:56:41.428Z,46.20
2022-08-16T20:59:07.961Z,46.30
2022-08-16T21:01:46.629Z,46.30
2022-08-16T21:04:16.976Z,46.40
2022-08-16T21:06:53.107Z,46.40
2022-08-16T21:09:21.362Z,46.30
2022-08-16T21:11:47.893Z,46.30
2022-08-16T21:14:18.112Z,46.40
2022-08-16T21:16:44.655Z,46.40
2022-08-16T21:19:11.189Z,46.40
2022-08-16T21:21:37.744Z,46.40
2022-08-16T21:24:04.272Z,46.30
2022-08-16T21:26:30.795Z,46.30
2022-08-16T21:28:57.321Z,46.30
2022-08-16T21:31:23.868Z,46.30
2022-08-16T21:33:55.065Z,46.30
2022-08-16T21:36:35.877Z,46.30
2022-08-16T21:39:02.935Z,46.20
2022-08-16T21:41:29.469Z,46.30
2022-08-16T21:43:56.004Z,46.30
2022-08-16T21:46:22.540Z,46.30
2022-08-16T21:48:49.068Z,46.30
2022-08-16T21:51:15.773Z,46.30
2022-08-16T21:53:42.303Z,46.40
2022-08-16T21:56:12.628Z,46.30
2022-08-16T21:58:43.512Z,46.30
2022-08-16T22:01:10.040Z,46.40
2022-08-16T22:03:36.582Z,46.30
2022-08-16T22:06:13.832Z,46.30
2022-08-16T22:08:49.187Z,46.30
2022-08-16T22:11:17.427Z,46.30
2022-08-16T22:13:51.252Z,46.30
2022-08-16T22:16:24.987Z,46.30
2022-08-16T22:18:52.528Z,46.40
2022-08-16T22:21:19.466Z,46.30
2022-08-16T22:23:46.085Z,46.30
2022-08-16T22:26:29.140Z,46.20
2022-08-16T22:28:57.090Z,46.20
2022-08-16T22:31:24.006Z,46.30
2022-08-16T22:33:50.670Z,46.20
2022-08-16T22:36:17.210Z,46.20
2022-08-16T22:38:54.679Z,46.20
2022-08-16T22:41:23.397Z,46.20
2022-08-16T22:43:49.928Z,46.10
2022-08-16T22:46:16.638Z,46.10
2022-08-16T22:48:43.174Z,46.10
2022-08-16T22:51:09.704Z,46.10
2022-08-16T22:53:37.461Z,46.10
2022-08-16T22:56:06.016Z,46.10
2022-08-16T22:58:36.281Z,46.10
2022-08-16T23:01:03.766Z,46.10
2022-08-16T23:03:30.551Z,46.10
2022-08-16T23:05:57.112Z,46.00
2022-08-16T23:08:39.624Z,46.00
2022-08-16T23:11:06.738Z,46.00
2022-08-16T23:13:33.251Z,46.10
2022-08-16T23:15:59.781Z,46.10
2022-08-16T23:18:28.604Z,46.00
2022-08-16T23:20:55.125Z,46.00
2022-08-16T23:23:22.089Z,46.00
2022-08-16T23:25:48.864Z,46.10
2022-08-16T23:28:15.393Z,46.10
2022-08-16T23:30:41.929Z,46.00
2022-08-16T23:33:08.447Z,46.10
2022-08-16T23:35:45.472Z,46.00
2022-08-16T23:38:38.048Z,46.10
2022-08-16T23:40:58.959Z,46.10
2022-08-16T23:43:25.486Z,46.10
2022-08-16T23:45:52.016Z,46.10
2022-08-16T23:48:18.518Z,46.20
2022-08-16T23:50:45.055Z,46.20
2022-08-16T23:53:11.585Z,46.20
2022-08-16T23:55:38.095Z,46.20
2022-08-16T23:58:04.621Z,46.20
